Amougies Airfield

EBAM · Hainaut, Wallonia, 比利时

使用的METAR站距离机场31 km。
罗盘
风向 的 风向 300° Amougies Airfield 11/29
风: 5 kt, 2 beaufort

5 kt

2 kt
改变
0 ft 2.000 4.000 6.000 8.000 10.000
Cloud Cloud
FEW 600
Cloud Cloud Cloud Cloud
SCT 3.200
Cloud Cloud Cloud Cloud Cloud Cloud
BKN 9.000
METAR EBCV 210925Z AUTO 30005KT 3300 -RA FEW006/// SCT032/// BKN090/// 15/15 Q1013 YLO

METAR Amougies Airfield - EBAM

Amougies Airfield是,比利时中的小机场。 该机场位于纬度50,73999和经度3,48517。 该机场有一条跑道: 11/29. 本场的ICAO机场代码为EBAM。 机场在Bruxelles FIR中。

该航空气象观测是针对Chièvres Air Base在2024年6月21日 11:25, 当地时间进行的。

机场观察

风向为300°,速度为5 kt。

可见度为3,3 km。

有几云在600 ft的高度, 疏云,零星散落的云朵在3.200 ft的高度 和 碎云在9.000 ft的高度。 破损或更高的上限为9.000 ft。

当前天气为光 雨。 温度和风寒是15 °C。 露点为15 °C,相对湿度为100%。 海平面上的气压为1013 hPa (QNH)。

白天

今天,太阳从05:32升起,在22:03降落。 这适用于Amougies Airfield,世界夏令时可能有所不同。 当地时间与世界标准时间之间的时差为+2 小时。 夏令时目前正在进行中。

公司介绍

我们没有关于这个机场的公司信息。

体会

到Vliegles.nl去找飞行课程,跳伞和其他飞行体验。 浏览页面,了解Amougies Airfield附近所有可用的活动。 你也可以使用搜索功能来寻找你所在地附近的特定飞行课程、跳伞或其他飞行体验。

跑道

Id 标题 侧风 逆风 侧风 %
11/29 099°-279° 2 kt 5 kt 36 %

逆风成分最大的方向会被突出显示,并用于横风计算。 这并不一定意味着这个方向在使用。

乌云

600 ft FEW 几云
3.200 ft SCT 疏云,零星散落的云朵
9.000 ft BKN 碎云

温度 & 天气

天气 光 雨
温度 15 °C
露点 15 °C
相对湿度 100%
Kp-index 0 (0-9)

白天

日出
05:32
中午
13:46
日落
22:00 (10:05)

小工具

你想在你的网站上有一个关于Amougies Airfield的当前航空天气(METAR)的小部件吗?

显示HTML代码
报告变更